Time;durP1;ratioP1;P1;durP2;ratioP2;P2;SDS_P1;SDS_P2;PMS_P1;PMS_P2;Temp;Humidity;BMP_temperature;BMP_pressure;BME280_temperature;BME280_humidity;BME280_pressure;Samples;Min_cycle;Max_cycle;Signal;HPM_P1;HPM_P2
2022/02/19 00:00:08;;;;;;;1.15;0.30;;;7.40;76.90;;;;;;5045371;28;20476;-82
2022/02/19 00:02:34;;;;;;;1.08;0.20;;;7.40;77.00;;;;;;5057595;28;20014;-82
2022/02/19 00:05:00;;;;;;;0.55;0.20;;;7.40;78.40;;;;;;5048881;28;20083;-83
2022/02/19 00:07:26;;;;;;;0.85;0.43;;;7.40;78.20;;;;;;5051637;28;20064;-83
2022/02/19 00:09:52;;;;;;;2.30;0.52;;;7.40;78.50;;;;;;5041559;28;20465;-83
2022/02/19 00:12:18;;;;;;;0.60;0.30;;;7.40;78.60;;;;;;5038042;28;20402;-83
2022/02/19 00:14:43;;;;;;;0.80;0.22;;;7.40;79.20;;;;;;5039099;28;20048;-83
2022/02/19 00:17:09;;;;;;;2.13;0.30;;;7.40;79.50;;;;;;5038855;28;20029;-82
2022/02/19 00:19:35;;;;;;;1.58;0.50;;;7.40;79.30;;;;;;5038239;28;20021;-83
2022/02/19 00:22:00;;;;;;;1.85;0.47;;;7.40;79.30;;;;;;5037526;28;20120;-82
2022/02/19 00:24:26;;;;;;;2.33;0.47;;;7.40;78.10;;;;;;5039643;28;20034;-83
2022/02/19 00:26:52;;;;;;;3.65;0.75;;;7.50;78.30;;;;;;5038387;28;20125;-83
2022/02/19 00:29:18;;;;;;;0.88;0.60;;;7.50;77.00;;;;;;5046793;28;20117;-83
2022/02/19 00:31:45;;;;;;;2.97;0.75;;;7.40;73.80;;;;;;5059156;28;20021;-82
2022/02/19 00:34:11;;;;;;;0.55;0.20;;;7.40;72.10;;;;;;5056553;28;20078;-82
2022/02/19 00:36:36;;;;;;;1.20;0.40;;;7.30;70.70;;;;;;5045421;28;20045;-83
2022/02/19 00:39:04;;;;;;;2.08;0.50;;;7.30;70.80;;;;;;5048298;28;20037;-82
2022/02/19 00:41:30;;;;;;;1.95;0.50;;;7.30;70.10;;;;;;5039529;28;20368;-82
2022/02/19 00:43:57;;;;;;;1.48;0.38;;;7.30;70.40;;;;;;5040201;28;20030;-82
2022/02/19 00:46:23;;;;;;;3.03;0.70;;;7.30;70.70;;;;;;5046140;28;20378;-82
2022/02/19 00:48:49;;;;;;;6.70;0.70;;;7.20;71.20;;;;;;5051349;28;20036;-82
2022/02/19 00:51:16;;;;;;;4.95;0.80;;;7.10;71.20;;;;;;5050542;28;20029;-82
2022/02/19 00:53:42;;;;;;;4.93;0.40;;;7.10;70.90;;;;;;5041053;28;20032;-83
2022/02/19 00:56:09;;;;;;;4.50;1.05;;;7.10;71.10;;;;;;5038094;28;20093;-83
2022/02/19 00:58:36;;;;;;;1.48;0.35;;;7.10;71.50;;;;;;5039474;28;20083;-81
2022/02/19 01:01:02;;;;;;;1.65;0.40;;;7.00;71.80;;;;;;5057676;28;20019;-82
2022/02/19 01:03:29;;;;;;;0.43;0.22;;;7.00;72.30;;;;;;5058750;28;20097;-83
2022/02/19 01:05:55;;;;;;;0.80;0.57;;;7.00;73.20;;;;;;5067857;28;20013;-89
2022/02/19 01:08:20;;;;;;;1.20;0.28;;;6.90;74.20;;;;;;5071914;28;20065;-81
2022/02/19 01:10:48;;;;;;;2.17;0.50;;;6.90;75.40;;;;;;5036273;28;20017;-82
2022/02/19 01:13:14;;;;;;;1.33;0.47;;;6.90;75.60;;;;;;5035599;28;20076;-82
2022/02/19 01:15:42;;;;;;;1.70;0.45;;;6.90;74.90;;;;;;5037586;28;20032;-82
2022/02/19 01:18:08;;;;;;;0.70;0.30;;;6.90;74.40;;;;;;5037117;28;20025;-82
2022/02/19 01:20:34;;;;;;;1.00;0.43;;;6.80;73.70;;;;;;5039151;28;20081;-82
2022/02/19 01:23:00;;;;;;;2.65;0.40;;;6.80;72.00;;;;;;5038419;28;20064;-82
2022/02/19 01:25:25;;;;;;;2.95;0.63;;;6.90;71.10;;;;;;5038184;28;20111;-82
2022/02/19 01:27:51;;;;;;;1.13;0.30;;;6.90;70.60;;;;;;5038040;28;20017;-83
2022/02/19 01:30:17;;;;;;;1.38;0.50;;;6.90;68.60;;;;;;5046387;28;20047;-83
2022/02/19 01:32:43;;;;;;;2.05;0.40;;;6.90;68.40;;;;;;5058287;28;20036;-84
2022/02/19 01:35:09;;;;;;;2.50;0.60;;;6.90;66.80;;;;;;5057522;28;20441;-84
2022/02/19 01:37:35;;;;;;;3.03;0.43;;;6.90;67.00;;;;;;5064228;28;20028;-85
2022/02/19 01:40:01;;;;;;;1.08;0.40;;;6.90;66.00;;;;;;5055484;28;20045;-83
2022/02/19 01:42:27;;;;;;;0.57;0.25;;;6.90;65.70;;;;;;5045589;28;20109;-84
2022/02/19 01:44:53;;;;;;;0.75;0.40;;;6.90;65.30;;;;;;5038740;28;20021;-82
2022/02/19 01:47:19;;;;;;;1.95;0.50;;;7.00;64.90;;;;;;5038265;28;20029;-82
2022/02/19 01:49:45;;;;;;;1.30;0.28;;;6.90;64.90;;;;;;5036193;28;20039;-82
2022/02/19 01:52:13;;;;;;;2.28;0.57;;;6.90;65.20;;;;;;5038445;28;20026;-82
2022/02/19 01:54:40;;;;;;;2.72;0.30;;;7.00;65.40;;;;;;5038207;28;20040;-83
2022/02/19 01:57:06;;;;;;;1.15;0.32;;;7.00;65.90;;;;;;5037944;28;20046;-82
2022/02/19 01:59:35;;;;;;;1.23;0.32;;;6.90;66.10;;;;;;5047967;28;20024;-84
2022/02/19 02:02:00;;;;;;;1.65;0.20;;;6.90;66.30;;;;;;5057980;28;20016;-82
2022/02/19 02:04:27;;;;;;;1.77;0.22;;;6.90;67.60;;;;;;5057044;28;20017;-82
2022/02/19 02:06:53;;;;;;;1.20;0.22;;;6.80;67.60;;;;;;5057383;28;20032;-83
2022/02/19 02:09:19;;;;;;;1.55;0.30;;;6.80;68.30;;;;;;5056452;28;20090;-81
2022/02/19 02:11:45;;;;;;;3.47;0.38;;;6.80;68.90;;;;;;5049778;28;20057;-81
2022/02/19 02:14:12;;;;;;;1.92;0.43;;;6.80;69.50;;;;;;5038029;28;20030;-82
2022/02/19 02:16:40;;;;;;;2.33;0.40;;;6.70;69.80;;;;;;5036451;28;20437;-85
2022/02/19 02:19:07;;;;;;;2.33;0.30;;;6.70;70.60;;;;;;5036582;28;20021;-82
2022/02/19 02:21:33;;;;;;;1.50;0.20;;;6.70;71.40;;;;;;5041062;28;20021;-83
2022/02/19 02:23:58;;;;;;;2.47;0.30;;;6.60;71.90;;;;;;5036518;28;20466;-83
2022/02/19 02:26:24;;;;;;;1.48;0.30;;;6.60;72.50;;;;;;5041711;28;20056;-84
2022/02/19 02:28:51;;;;;;;2.22;0.20;;;6.60;72.70;;;;;;5039432;28;20041;-82
2022/02/19 02:31:17;;;;;;;1.80;0.52;;;6.60;73.30;;;;;;5040598;28;20032;-83
2022/02/19 02:33:43;;;;;;;1.35;0.30;;;6.60;73.50;;;;;;5063140;28;20029;-82
2022/02/19 02:36:09;;;;;;;1.88;0.65;;;6.60;73.70;;;;;;5067936;28;20178;-84
2022/02/19 02:38:35;;;;;;;1.10;0.32;;;6.50;73.90;;;;;;5060600;28;20403;-84
2022/02/19 02:41:01;;;;;;;1.40;0.50;;;6.50;74.20;;;;;;5059978;28;20104;-83
2022/02/19 02:43:27;;;;;;;1.27;0.30;;;6.50;74.60;;;;;;5039829;28;20105;-84
2022/02/19 02:45:53;;;;;;;1.30;0.45;;;6.50;74.50;;;;;;5036428;28;20132;-83
2022/02/19 02:48:19;;;;;;;2.42;0.47;;;6.50;74.70;;;;;;5036140;28;20095;-84
2022/02/19 02:50:44;;;;;;;2.15;0.57;;;6.60;74.70;;;;;;5037604;28;20026;-83
2022/02/19 02:53:11;;;;;;;3.17;0.50;;;6.60;74.80;;;;;;5035642;28;20061;-83
2022/02/19 02:55:37;;;;;;;1.08;0.40;;;6.60;74.90;;;;;;5035044;28;20035;-84
2022/02/19 02:58:03;;;;;;;3.03;0.60;;;6.60;75.10;;;;;;5036912;28;20399;-84
2022/02/19 03:00:29;;;;;;;3.45;0.52;;;6.60;74.90;;;;;;5047671;28;20238;-84
2022/02/19 03:02:54;;;;;;;3.85;0.70;;;6.60;74.70;;;;;;5046320;28;20022;-84
2022/02/19 03:05:21;;;;;;;2.75;0.70;;;6.70;74.60;;;;;;5036994;28;20021;-84
2022/02/19 03:07:47;;;;;;;2.85;0.40;;;6.70;75.40;;;;;;5035076;28;20033;-84
2022/02/19 03:10:16;;;;;;;0.77;0.40;;;6.70;75.20;;;;;;5036629;28;20050;-84
2022/02/19 03:12:43;;;;;;;2.35;0.73;;;6.70;75.10;;;;;;5036027;28;20025;-84
2022/02/19 03:15:09;;;;;;;2.28;0.50;;;6.70;75.80;;;;;;5035547;28;20280;-84
2022/02/19 03:17:39;;;;;;;2.30;0.30;;;6.80;76.40;;;;;;5036547;28;20028;-84
2022/02/19 03:20:06;;;;;;;0.75;0.20;;;6.70;77.90;;;;;;5042818;28;20026;-83
2022/02/19 03:22:32;;;;;;;3.70;0.40;;;6.60;82.60;;;;;;5053394;28;20041;-84
2022/02/19 03:24:57;;;;;;;1.98;0.30;;;6.30;86.00;;;;;;5053928;28;20021;-84
2022/02/19 03:27:25;;;;;;;1.95;0.50;;;6.10;88.60;;;;;;5054426;28;20089;-85
2022/02/19 03:29:51;;;;;;;1.25;0.10;;;6.00;90.10;;;;;;5057969;28;20013;-84
2022/02/19 03:32:17;;;;;;;4.80;0.40;;;5.80;90.80;;;;;;5074246;28;20146;-84
2022/02/19 03:34:42;;;;;;;1.52;0.30;;;5.70;91.60;;;;;;5051351;28;20040;-84
2022/02/19 03:37:09;;;;;;;1.85;0.10;;;5.80;91.40;;;;;;5035675;28;20040;-84
2022/02/19 03:39:35;;;;;;;0.68;0.22;;;5.70;90.70;;;;;;5036136;28;20096;-84
2022/02/19 03:42:01;;;;;;;1.33;0.17;;;5.70;90.30;;;;;;5035208;28;20454;-84
2022/02/19 03:44:26;;;;;;;1.33;0.20;;;5.60;88.60;;;;;;5036526;28;20026;-84
2022/02/19 03:46:52;;;;;;;1.45;0.17;;;5.60;86.70;;;;;;5041566;28;20037;-84
2022/02/19 03:49:18;;;;;;;1.65;0.55;;;5.50;87.00;;;;;;5053894;28;20086;-84
2022/02/19 03:51:43;;;;;;;0.35;0.20;;;5.30;90.10;;;;;;5051530;28;20037;-84
2022/02/19 03:54:09;;;;;;;0.82;0.55;;;5.10;91.30;;;;;;5040386;28;20029;-84
2022/02/19 03:56:35;;;;;;;2.28;0.40;;;4.90;92.30;;;;;;5039476;28;20026;-84
2022/02/19 03:59:01;;;;;;;1.02;0.08;;;4.80;93.50;;;;;;5037666;28;20440;-86
2022/02/19 04:01:26;;;;;;;0.20;0.20;;;4.60;94.20;;;;;;5055109;28;20029;-85
2022/02/19 04:03:52;;;;;;;1.45;0.38;;;4.50;95.20;;;;;;5058192;28;20051;-87
2022/02/19 04:06:18;;;;;;;0.28;0.17;;;4.50;95.80;;;;;;5037504;28;20120;-87
2022/02/19 04:08:43;;;;;;;0.85;0.10;;;4.40;96.40;;;;;;5038228;28;20386;-86
2022/02/19 04:11:09;;;;;;;0.68;0.20;;;4.40;96.80;;;;;;5051176;28;20033;-84
2022/02/19 04:13:35;;;;;;;0.40;0.10;;;4.30;97.30;;;;;;5040096;28;20034;-85
2022/02/19 04:16:02;;;;;;;1.08;0.20;;;4.30;97.70;;;;;;5038751;28;20130;-85
2022/02/19 04:18:29;;;;;;;1.08;0.20;;;4.20;98.10;;;;;;5037294;28;20108;-85
2022/02/19 04:20:55;;;;;;;0.40;0.10;;;4.20;98.50;;;;;;5038946;28;20048;-84
2022/02/19 04:23:20;;;;;;;2.17;0.20;;;4.20;98.70;;;;;;5036985;28;20026;-85
2022/02/19 04:25:46;;;;;;;0.50;0.22;;;4.10;98.90;;;;;;5037850;28;20032;-85
2022/02/19 04:28:12;;;;;;;0.80;0.20;;;4.10;99.40;;;;;;5037745;28;20025;-85
2022/02/19 04:30:38;;;;;;;0.88;0.20;;;4.10;99.80;;;;;;5048391;28;20028;-85
2022/02/19 04:33:04;;;;;;;1.30;0.20;;;4.10;99.90;;;;;;5057954;28;20017;-86
2022/02/19 04:35:31;;;;;;;0.88;0.28;;;4.10;99.90;;;;;;5052671;28;20029;-85
2022/02/19 04:37:57;;;;;;;0.00;0.00;;;4.10;99.90;;;;;;5038310;28;20036;-85
2022/02/19 04:40:24;;;;;;;0.65;0.30;;;4.10;99.90;;;;;;5035997;28;20025;-86
2022/02/19 04:42:51;;;;;;;2.05;0.20;;;4.10;99.90;;;;;;5037735;28;20125;-86
2022/02/19 04:45:17;;;;;;;2.05;0.40;;;4.20;99.90;;;;;;5038654;28;20017;-86
2022/02/19 04:47:43;;;;;;;2.70;0.90;;;4.20;99.90;;;;;;5035585;28;20501;-85
2022/02/19 04:50:11;;;;;;;0.52;0.30;;;4.20;99.90;;;;;;5037019;28;20057;-86
2022/02/19 04:52:38;;;;;;;0.73;0.20;;;4.30;99.90;;;;;;5037495;28;20105;-86
2022/02/19 04:55:04;;;;;;;3.33;0.43;;;4.30;99.90;;;;;;5041397;28;20032;-85
2022/02/19 04:57:30;;;;;;;3.90;0.68;;;4.30;99.90;;;;;;5050265;28;20099;-84
2022/02/19 04:59:56;;;;;;;1.52;0.60;;;4.30;99.90;;;;;;5057732;28;20013;-85
2022/02/19 05:02:22;;;;;;;1.73;0.60;;;4.40;99.60;;;;;;5069767;28;20020;-84
2022/02/19 05:04:48;;;;;;;2.97;0.70;;;4.50;99.20;;;;;;5066818;28;20032;-85
2022/02/19 05:07:14;;;;;;;2.35;0.63;;;4.50;98.80;;;;;;5048658;28;20465;-85
2022/02/19 05:09:40;;;;;;;2.30;0.70;;;4.60;98.40;;;;;;5037799;28;20037;-85
2022/02/19 05:12:06;;;;;;;4.95;0.90;;;4.70;98.30;;;;;;5038003;28;20052;-85
2022/02/19 05:14:32;;;;;;;1.77;1.20;;;4.80;98.00;;;;;;5037986;28;20040;-85
2022/02/19 05:16:57;;;;;;;4.18;1.60;;;4.80;97.70;;;;;;5038010;28;20029;-84
2022/02/19 05:19:23;;;;;;;4.53;1.30;;;4.90;97.60;;;;;;5035519;28;20053;-86
2022/02/19 05:21:49;;;;;;;3.22;0.75;;;4.90;97.30;;;;;;5037136;28;20026;-86
2022/02/19 05:24:15;;;;;;;2.42;0.75;;;4.90;97.10;;;;;;5035741;28;20390;-84
2022/02/19 05:26:41;;;;;;;2.90;0.60;;;4.90;97.10;;;;;;5035960;28;20131;-84
2022/02/19 05:29:07;;;;;;;4.30;0.70;;;4.80;96.90;;;;;;5035268;28;20079;-85
2022/02/19 05:31:32;;;;;;;2.30;0.40;;;4.80;97.10;;;;;;5047399;28;20515;-85
2022/02/19 05:33:58;;;;;;;4.97;0.80;;;4.80;97.10;;;;;;5057683;28;20061;-85
2022/02/19 05:36:24;;;;;;;2.15;0.60;;;4.80;97.10;;;;;;5057423;28;20025;-84
2022/02/19 05:38:50;;;;;;;2.58;0.73;;;4.80;97.00;;;;;;5041940;28;20029;-85
2022/02/19 05:41:15;;;;;;;3.25;0.65;;;4.80;97.00;;;;;;5034893;28;20390;-85
2022/02/19 05:43:41;;;;;;;3.67;0.90;;;4.80;97.10;;;;;;5034841;28;20017;-86
2022/02/19 05:46:07;;;;;;;2.60;0.60;;;4.90;96.90;;;;;;5035164;28;20100;-85
2022/02/19 05:48:32;;;;;;;2.75;0.63;;;5.00;96.70;;;;;;5035712;28;20116;-85
2022/02/19 05:50:59;;;;;;;4.05;0.52;;;5.00;96.40;;;;;;5036249;28;20033;-85
2022/02/19 05:53:24;;;;;;;3.22;0.50;;;5.10;96.10;;;;;;5035681;28;20164;-86
2022/02/19 05:55:50;;;;;;;7.50;0.80;;;5.10;96.00;;;;;;5050583;28;20055;-86
2022/02/19 05:58:19;;;;;;;1.50;0.60;;;5.10;96.10;;;;;;5060042;28;20029;-85
2022/02/19 06:00:44;;;;;;;4.40;1.38;;;5.10;95.90;;;;;;5052732;28;20033;-86
2022/02/19 06:03:10;;;;;;;5.07;0.95;;;5.20;95.70;;;;;;5045475;28;20026;-86
2022/02/19 06:05:36;;;;;;;4.30;0.80;;;5.20;95.60;;;;;;5048958;28;20013;-84
2022/02/19 06:08:02;;;;;;;4.40;0.73;;;5.20;95.50;;;;;;5052414;28;20506;-84
2022/02/19 06:10:28;;;;;;;7.38;0.63;;;5.20;94.90;;;;;;5052536;28;20085;-84
2022/02/19 06:12:53;;;;;;;8.60;1.20;;;5.30;94.80;;;;;;5054042;28;20546;-85
2022/02/19 06:15:19;;;;;;;2.47;1.00;;;5.20;94.90;;;;;;5051426;28;20101;-83
2022/02/19 06:17:45;;;;;;;4.35;0.80;;;5.20;95.00;;;;;;5065173;28;20045;-85
2022/02/19 06:20:11;;;;;;;8.18;1.00;;;5.10;95.10;;;;;;5050847;28;20034;-86
2022/02/19 06:22:36;;;;;;;4.20;0.70;;;5.10;95.10;;;;;;5041417;28;20025;-86
2022/02/19 06:25:02;;;;;;;4.30;0.90;;;5.10;95.20;;;;;;5062028;28;20020;-84
2022/02/19 06:27:28;;;;;;;1.67;0.60;;;5.10;95.20;;;;;;5072912;28;20035;-85
2022/02/19 06:29:54;;;;;;;5.88;0.85;;;5.00;95.30;;;;;;5051961;28;20494;-86
2022/02/19 06:32:19;;;;;;;4.63;0.90;;;5.00;95.40;;;;;;5037339;28;20025;-86
2022/02/19 06:34:45;;;;;;;5.97;0.93;;;5.00;95.30;;;;;;5037141;28;20563;-87
2022/02/19 06:37:12;;;;;;;3.92;0.93;;;5.00;95.30;;;;;;5037290;28;20040;-87
2022/02/19 06:39:37;;;;;;;6.82;1.27;;;5.00;95.20;;;;;;5036935;28;20021;-84
2022/02/19 06:42:03;;;;;;;12.27;1.48;;;5.10;95.30;;;;;;5049624;28;20028;-84
2022/02/19 06:44:29;;;;;;;4.00;0.93;;;5.20;94.80;;;;;;5055475;28;20037;-84
2022/02/19 06:46:55;;;;;;;4.30;0.90;;;5.30;94.60;;;;;;5053568;28;20025;-84
2022/02/19 06:49:20;;;;;;;5.22;1.42;;;5.40;94.40;;;;;;5051354;28;20029;-83
2022/02/19 06:51:46;;;;;;;6.63;1.23;;;5.50;93.80;;;;;;5041731;28;20040;-85
2022/02/19 06:54:12;;;;;;;7.38;1.08;;;5.60;93.40;;;;;;5040437;28;20033;-85
2022/02/19 06:56:38;;;;;;;3.35;1.10;;;5.60;93.10;;;;;;5058917;28;20025;-85
2022/02/19 06:59:05;;;;;;;5.38;1.20;;;5.70;93.00;;;;;;5057655;28;20014;-85
2022/02/19 07:01:31;;;;;;;7.05;0.93;;;5.70;92.60;;;;;;5047610;28;20048;-85
2022/02/19 07:03:59;;;;;;;7.28;2.50;;;5.70;92.50;;;;;;5038879;28;20450;-85
2022/02/19 07:06:25;;;;;;;3.92;0.65;;;5.70;92.10;;;;;;5036149;28;20021;-85
2022/02/19 07:08:51;;;;;;;3.53;0.75;;;5.70;91.90;;;;;;5033996;28;20022;-85
2022/02/19 07:11:17;;;;;;;3.28;0.70;;;5.70;91.90;;;;;;5035626;28;20029;-85
2022/02/19 07:13:43;;;;;;;8.15;1.10;;;5.70;91.80;;;;;;5035644;28;20047;-85
2022/02/19 07:16:09;;;;;;;11.60;1.50;;;5.60;91.70;;;;;;5038913;28;20394;-84
2022/02/19 07:18:41;;;;;;;5.65;1.05;;;5.60;91.70;;;;;;5037075;28;20026;-85
2022/02/19 07:21:06;;;;;;;6.05;1.63;;;5.50;91.70;;;;;;5036984;28;20033;-84
2022/02/19 07:23:32;;;;;;;1.77;0.82;;;5.50;91.80;;;;;;5039448;28;20025;-85
2022/02/19 07:25:59;;;;;;;7.18;1.55;;;5.60;91.70;;;;;;5056192;28;20025;-84
2022/02/19 07:28:24;;;;;;;3.75;0.98;;;5.70;91.50;;;;;;5062948;28;20056;-84
2022/02/19 07:30:50;;;;;;;6.43;1.08;;;5.80;90.60;;;;;;5063165;28;20033;-84
2022/02/19 07:33:19;;;;;;;4.55;1.27;;;5.90;90.40;;;;;;5041820;28;20087;-85
2022/02/19 07:35:45;;;;;;;7.07;1.35;;;5.80;90.20;;;;;;5042109;28;20026;-85
2022/02/19 07:38:10;;;;;;;4.70;1.10;;;5.90;89.50;;;;;;5041486;28;20486;-85
2022/02/19 07:40:36;;;;;;;3.58;0.98;;;5.90;89.20;;;;;;5040052;28;20025;-85
2022/02/19 07:43:02;;;;;;;5.07;1.45;;;5.90;88.20;;;;;;5039896;28;20026;-85
2022/02/19 07:45:28;;;;;;;7.10;2.22;;;6.00;87.80;;;;;;5040713;28;20085;-85
2022/02/19 07:47:53;;;;;;;10.02;1.25;;;6.00;86.80;;;;;;5041726;28;20032;-86
2022/02/19 07:58:33;;;;;;;9.30;1.42;;;6.50;84.60;;;;;;5040509;28;20664;-84
2022/02/19 08:01:04;;;;;;;6.28;1.13;;;6.60;83.20;;;;;;5039450;28;20037;-85
2022/02/19 08:03:32;;;;;;;6.25;1.20;;;6.60;82.50;;;;;;5040650;28;20450;-84
2022/02/19 08:05:58;;;;;;;10.35;1.35;;;6.60;82.20;;;;;;5040697;28;20047;-84
2022/02/19 08:08:31;;;;;;;5.57;1.08;;;6.60;82.00;;;;;;5044602;28;20093;-85
2022/02/19 08:10:56;;;;;;;4.10;1.42;;;6.70;82.00;;;;;;5051326;28;20144;-86
2022/02/19 08:13:23;;;;;;;5.43;1.20;;;6.50;81.80;;;;;;5038973;28;20437;-84
2022/02/19 08:15:52;;;;;;;4.38;1.15;;;6.60;82.20;;;;;;5043332;28;20026;-85
2022/02/19 08:18:21;;;;;;;7.00;1.35;;;6.60;80.80;;;;;;5040841;28;20098;-84
2022/02/19 08:20:49;;;;;;;6.22;1.35;;;6.50;80.00;;;;;;5043502;28;20120;-87
2022/02/19 08:23:17;;;;;;;6.50;1.15;;;6.50;79.70;;;;;;5047363;28;20017;-86
2022/02/19 08:25:44;;;;;;;10.30;1.63;;;6.70;78.90;;;;;;5044009;28;20052;-86
2022/02/19 08:28:11;;;;;;;4.82;1.35;;;6.70;77.20;;;;;;5059542;28;20036;-87
2022/02/19 08:30:39;;;;;;;6.57;1.13;;;6.80;76.20;;;;;;5060754;28;20021;-86
2022/02/19 08:33:06;;;;;;;5.75;0.90;;;6.90;74.50;;;;;;5060173;28;20052;-87
2022/02/19 08:35:32;;;;;;;6.80;1.02;;;7.00;74.20;;;;;;5042734;28;20022;-86
2022/02/19 08:37:59;;;;;;;5.85;1.27;;;7.20;73.40;;;;;;5066494;22;20091;-81
2022/02/19 08:40:25;;;;;;;3.90;1.20;;;7.20;72.70;;;;;;5035947;28;20094;-81
2022/02/19 08:42:51;;;;;;;6.80;1.17;;;7.20;72.90;;;;;;5043285;28;20080;-81
2022/02/19 08:45:18;;;;;;;6.20;1.40;;;7.30;73.60;;;;;;5027731;28;20033;-81
2022/02/19 08:47:45;;;;;;;6.07;1.17;;;7.30;74.10;;;;;;5008310;28;20340;-80
2022/02/19 08:50:12;;;;;;;6.15;1.20;;;7.30;74.10;;;;;;5023554;28;20075;-81
2022/02/19 08:52:45;;;;;;;2.42;1.00;;;7.40;74.20;;;;;;5022331;28;20053;-80
2022/02/19 08:55:13;;;;;;;5.60;1.90;;;7.60;75.00;;;;;;5033108;28;20310;-81
2022/02/19 08:57:39;;;;;;;4.53;1.13;;;7.80;72.40;;;;;;5044711;28;20398;-81
2022/02/19 09:00:08;;;;;;;7.65;1.30;;;8.10;72.40;;;;;;5046331;28;20482;-81
2022/02/19 09:02:35;;;;;;;5.65;1.17;;;8.40;70.10;;;;;;5025034;28;20386;-81
2022/02/19 09:05:01;;;;;;;4.38;1.38;;;8.50;66.70;;;;;;5024389;28;20034;-82
2022/02/19 09:07:28;;;;;;;7.00;1.42;;;8.30;66.40;;;;;;5025253;28;20041;-80
2022/02/19 09:09:53;;;;;;;8.95;1.85;;;8.20;65.80;;;;;;5021773;28;20137;-82
2022/02/19 09:12:21;;;;;;;6.35;1.35;;;8.20;66.30;;;;;;5004524;28;20064;-82
2022/02/19 09:14:47;;;;;;;8.13;1.40;;;8.20;63.20;;;;;;5006162;28;20034;-82
2022/02/19 09:17:15;;;;;;;8.73;1.17;;;8.30;62.90;;;;;;5023197;28;20041;-80
2022/02/19 09:19:41;;;;;;;3.38;0.82;;;8.50;62.90;;;;;;5028512;28;20036;-80
2022/02/19 09:22:06;;;;;;;6.80;1.00;;;8.80;61.10;;;;;;5007814;28;20053;-81
2022/02/19 09:24:33;;;;;;;6.47;1.70;;;8.70;60.20;;;;;;5026512;28;20025;-82
2022/02/19 09:27:01;;;;;;;6.63;1.20;;;8.60;60.60;;;;;;5045011;28;20025;-81
2022/02/19 09:29:27;;;;;;;7.38;1.38;;;8.50;61.20;;;;;;5028169;28;20056;-81
2022/02/19 09:31:53;;;;;;;11.10;1.75;;;8.60;61.40;;;;;;5040717;28;20029;-81
2022/02/19 09:34:22;;;;;;;8.32;1.00;;;8.70;59.70;;;;;;5008844;28;20037;-81
2022/02/19 09:36:51;;;;;;;6.10;1.17;;;8.60;59.40;;;;;;5022804;28;20081;-80
2022/02/19 09:39:20;;;;;;;10.95;1.38;;;8.50;60.10;;;;;;5026446;28;20390;-83
2022/02/19 09:41:49;;;;;;;6.28;1.20;;;8.50;60.10;;;;;;5023437;28;20048;-82
2022/02/19 09:44:16;;;;;;;6.80;1.05;;;8.70;61.00;;;;;;5022275;28;20359;-82
2022/02/19 09:46:42;;;;;;;5.05;1.23;;;9.00;59.20;;;;;;5007654;28;20114;-81
2022/02/19 09:49:11;;;;;;;4.22;1.20;;;9.20;58.90;;;;;;5006063;28;20026;-81
2022/02/19 09:51:37;;;;;;;4.95;1.10;;;9.40;58.50;;;;;;5023180;28;20034;-80
2022/02/19 09:54:05;;;;;;;4.97;1.02;;;9.60;58.20;;;;;;5025700;28;20034;-80
2022/02/19 09:56:31;;;;;;;5.25;1.00;;;9.60;57.00;;;;;;5025192;28;20032;-80
2022/02/19 09:59:01;;;;;;;4.63;1.40;;;9.40;57.50;;;;;;5050825;28;20029;-81
2022/02/19 10:01:27;;;;;;;9.07;1.23;;;9.20;57.80;;;;;;5047838;28;20031;-81
2022/02/19 10:04:02;;;;;;;6.68;1.60;;;9.00;58.30;;;;;;5024059;28;20045;-80
2022/02/19 10:06:37;;;;;;;6.47;1.02;;;8.90;58.10;;;;;;5033651;28;20026;-81
2022/02/19 10:09:20;;;;;;;5.97;1.42;;;9.20;58.10;;;;;;5034172;28;20391;-81
2022/02/19 10:11:48;;;;;;;4.72;1.17;;;9.30;58.30;;;;;;5003020;28;20042;-81
2022/02/19 10:14:36;;;;;;;6.38;1.30;;;9.30;57.10;;;;;;5004199;28;20029;-81
2022/02/19 10:17:24;;;;;;;5.32;1.05;;;9.20;57.90;;;;;;5025147;28;20045;-82
2022/02/19 10:20:04;;;;;;;5.45;1.42;;;9.30;57.30;;;;;;5024340;28;20041;-82
2022/02/19 10:22:41;;;;;;;3.28;1.27;;;9.20;58.10;;;;;;5025171;28;20022;-81
2022/02/19 10:25:14;;;;;;;6.05;2.10;;;9.00;58.50;;;;;;5036705;28;20039;-82
2022/02/19 10:27:58;;;;;;;6.72;1.58;;;8.90;59.10;;;;;;5031687;28;20089;-80
2022/02/19 10:30:26;;;;;;;4.82;1.00;;;9.20;57.90;;;;;;5036062;28;20022;-80
2022/02/19 10:33:05;;;;;;;5.30;1.40;;;9.30;54.70;;;;;;5034402;28;20030;-81
2022/02/19 10:35:42;;;;;;;5.97;1.33;;;9.40;53.70;;;;;;5030780;28;20022;-81
2022/02/19 10:38:11;;;;;;;4.28;1.10;;;9.40;54.00;;;;;;5031089;28;20057;-80
2022/02/19 10:40:40;;;;;;;4.30;1.10;;;9.30;54.60;;;;;;5017743;28;20069;-81
2022/02/19 10:43:30;;;;;;;9.60;1.33;;;9.20;55.00;;;;;;5031662;28;20030;-82
2022/02/19 10:45:58;;;;;;;3.88;1.48;;;8.80;55.60;;;;;;5023430;28;20124;-82
2022/02/19 10:48:31;;;;;;;4.25;0.90;;;8.70;56.50;;;;;;5005007;28;20026;-81
2022/02/19 10:51:13;;;;;;;6.80;1.10;;;9.00;56.50;;;;;;5005910;28;20060;-82
2022/02/19 10:53:49;;;;;;;2.03;0.98;;;9.20;56.40;;;;;;5022876;28;20040;-81
2022/02/19 10:56:19;;;;;;;7.32;1.58;;;9.20;57.10;;;;;;5015620;28;20544;-82
2022/02/19 10:59:00;;;;;;;5.50;1.50;;;9.60;56.20;;;;;;5040855;28;20018;-80
2022/02/19 11:01:27;;;;;;;7.40;1.30;;;10.00;54.60;;;;;;5045005;28;20064;-81
2022/02/19 11:03:53;;;;;;;3.42;1.27;;;10.30;54.00;;;;;;5045123;28;20386;-80
2022/02/19 11:06:20;;;;;;;3.70;1.00;;;10.60;54.10;;;;;;5033942;28;20030;-80
2022/02/19 11:08:46;;;;;;;2.75;1.15;;;10.80;53.40;;;;;;5007609;28;20545;-81
2022/02/19 11:11:12;;;;;;;6.43;1.30;;;11.00;52.10;;;;;;5025716;28;20049;-81
2022/02/19 11:13:39;;;;;;;5.05;1.50;;;10.90;52.30;;;;;;5025420;28;20072;-82
2022/02/19 11:16:11;;;;;;;6.80;1.88;;;10.90;52.30;;;;;;5024172;28;20107;-82
2022/02/19 11:18:37;;;;;;;6.40;2.47;;;10.90;52.40;;;;;;5007573;28;20073;-81
2022/02/19 11:21:04;;;;;;;12.65;2.08;;;11.20;51.10;;;;;;5008251;28;20089;-81
2022/02/19 11:23:32;;;;;;;6.15;1.63;;;11.20;49.70;;;;;;5024615;28;20482;-81
2022/02/19 11:25:59;;;;;;;5.70;1.25;;;11.00;49.30;;;;;;5035775;28;20025;-81
2022/02/19 11:28:36;;;;;;;4.82;1.10;;;10.50;49.90;;;;;;5043075;28;20025;-82
2022/02/19 11:31:06;;;;;;;6.85;1.45;;;10.40;50.70;;;;;;5025835;28;20027;-81
2022/02/19 11:33:33;;;;;;;5.57;1.25;;;10.10;50.50;;;;;;5044924;28;20059;-80
2022/02/19 11:36:07;;;;;;;4.63;1.23;;;9.90;51.50;;;;;;5024197;28;20028;-82
2022/02/19 11:38:36;;;;;;;7.18;1.70;;;9.90;51.90;;;;;;5024313;28;20406;-82
2022/02/19 11:41:19;;;;;;;4.72;1.60;;;9.80;52.60;;;;;;5023955;28;20018;-82
2022/02/19 11:43:47;;;;;;;5.55;1.48;;;9.70;52.60;;;;;;5007839;28;20075;-82
2022/02/19 11:46:16;;;;;;;6.28;1.65;;;9.70;52.70;;;;;;5008696;28;20125;-82
2022/02/19 11:48:44;;;;;;;7.93;1.55;;;10.00;52.60;;;;;;5024836;28;20081;-82
2022/02/19 11:51:12;;;;;;;8.13;1.90;;;10.20;51.70;;;;;;5022490;28;20052;-81
2022/02/19 11:53:37;;;;;;;5.47;1.88;;;10.10;51.80;;;;;;5006874;28;20358;-83
2022/02/19 11:56:10;;;;;;;12.18;1.70;;;9.90;51.70;;;;;;5035848;28;20025;-82
2022/02/19 11:58:49;;;;;;;;;;;9.70;52.60;;;;;;5007127;28;20120;-82
2022/02/19 12:01:14;;;;;;;8.80;1.30;;;9.50;53.40;;;;;;5004212;28;19906;-79
2022/02/19 12:03:40;;;;;;;6.40;1.80;;;9.60;52.70;;;;;;5005048;28;20022;-81
2022/02/19 12:06:27;;;;;;;7.32;1.80;;;9.70;52.60;;;;;;5022556;28;20132;-81
2022/02/19 12:09:09;;;;;;;8.63;1.50;;;9.90;51.40;;;;;;5020820;28;20022;-82
2022/02/19 12:12:05;;;;;;;4.70;1.45;;;9.80;51.40;;;;;;5022382;28;20032;-81
2022/02/19 12:14:40;;;;;;;5.18;1.20;;;9.40;50.70;;;;;;5013653;28;20089;-81
2022/02/19 12:17:16;;;;;;;6.28;1.10;;;9.00;51.20;;;;;;5022318;28;20054;-82
2022/02/19 12:19:56;;;;;;;6.60;1.40;;;8.70;51.20;;;;;;5024300;28;20029;-79
2022/02/19 12:22:49;;;;;;;7.28;1.58;;;8.50;52.40;;;;;;5022935;28;20026;-81
2022/02/19 12:25:16;;;;;;;4.90;1.95;;;8.40;53.20;;;;;;5020488;28;20485;-82
2022/02/19 12:27:43;;;;;;;6.53;1.35;;;8.30;53.80;;;;;;5041457;28;20073;-82
2022/02/19 12:30:23;;;;;;;7.65;1.42;;;8.20;54.00;;;;;;5025622;28;20029;-82
2022/02/19 12:32:55;;;;;;;2.38;1.15;;;8.20;53.90;;;;;;5025072;28;20025;-81
2022/02/19 12:35:36;;;;;;;4.75;1.15;;;8.20;53.70;;;;;;5042279;28;20391;-80
2022/02/19 12:38:02;;;;;;;6.70;1.40;;;8.20;53.90;;;;;;5042957;28;20049;-82
2022/02/19 12:40:29;;;;;;;4.10;1.30;;;8.30;54.40;;;;;;5023849;28;20025;-82
2022/02/19 12:42:55;;;;;;;7.15;1.40;;;8.30;54.60;;;;;;5018218;28;20024;-82
2022/02/19 12:45:21;;;;;;;5.38;1.13;;;8.30;55.10;;;;;;5032527;28;20026;-81
2022/02/19 12:47:47;;;;;;;9.88;1.70;;;8.30;54.70;;;;;;5024845;28;20156;-81
2022/02/19 12:50:16;;;;;;;8.73;1.65;;;8.20;54.70;;;;;;5023931;28;20056;-83
2022/02/19 12:52:46;;;;;;;9.20;1.45;;;8.50;53.90;;;;;;5008108;28;20030;-80
2022/02/19 12:55:16;;;;;;;7.63;1.23;;;8.60;53.20;;;;;;5023439;28;20034;-81
2022/02/19 12:57:50;;;;;;;4.50;1.05;;;8.60;52.40;;;;;;5005226;28;20034;-82
2022/02/19 13:00:17;;;;;;;3.58;1.35;;;8.50;51.60;;;;;;5006305;28;20095;-82
2022/02/19 13:02:45;;;;;;;5.05;1.27;;;8.60;51.90;;;;;;5005067;28;20018;-83
2022/02/19 13:05:14;;;;;;;5.88;1.55;;;8.60;51.60;;;;;;5030583;28;20021;-83